createdAt,value
2023-03-06T00:00:55.327Z,3.31
2023-03-06T00:03:24.571Z,3.23
2023-03-06T00:05:55.733Z,3.12
2023-03-06T00:21:00.051Z,3.71
2023-03-06T00:23:28.525Z,3.71
2023-03-06T00:25:56.344Z,3.07
2023-03-06T00:28:24.589Z,2.89
2023-03-06T00:30:53.076Z,2.88
2023-03-06T00:33:20.910Z,2.87
2023-03-06T00:35:48.866Z,2.89
2023-03-06T00:38:17.560Z,2.94
2023-03-06T00:56:00.395Z,3.32
2023-03-06T00:58:29.077Z,3.32
2023-03-06T01:00:57.498Z,2.64
2023-03-06T01:03:25.464Z,2.87
2023-03-06T01:05:54.026Z,2.93
2023-03-06T01:08:31.553Z,3.03
2023-03-06T01:10:59.931Z,2.97
2023-03-06T01:33:57.279Z,3.67
2023-03-06T01:36:25.806Z,3.67
2023-03-06T01:38:53.634Z,3.14
2023-03-06T01:41:21.691Z,3.03
2023-03-06T01:43:50.153Z,3.03
2023-03-06T01:46:33.442Z,2.96
2023-03-06T01:49:34.915Z,2.87
2023-03-06T02:05:43.834Z,3.24
2023-03-06T02:08:15.546Z,3.24
2023-03-06T02:10:55.907Z,2.76
2023-03-06T02:13:24.347Z,2.54
2023-03-06T02:15:52.979Z,2.70
2023-03-06T02:18:21.203Z,2.63
2023-03-06T02:20:54.327Z,2.72
2023-03-06T02:41:51.056Z,3.07
2023-03-06T02:44:20.848Z,3.07
2023-03-06T02:46:48.817Z,2.40
2023-03-06T02:49:16.693Z,2.51
2023-03-06T02:51:44.940Z,2.50
2023-03-06T02:54:13.014Z,2.55
2023-03-06T02:56:41.984Z,2.59
2023-03-06T02:59:10.454Z,2.58
2023-03-06T03:19:05.399Z,2.97
2023-03-06T03:21:34.427Z,2.97
2023-03-06T03:24:02.596Z,2.51
2023-03-06T03:26:30.399Z,2.46
2023-03-06T03:28:59.383Z,2.52
2023-03-06T03:31:27.842Z,2.52
2023-03-06T03:33:55.945Z,2.38
2023-03-06T03:56:51.746Z,3.11
2023-03-06T03:59:21.260Z,3.11
2023-03-06T04:01:49.791Z,2.59
2023-03-06T04:04:18.069Z,2.57
2023-03-06T04:06:46.039Z,2.55
2023-03-06T04:09:14.426Z,2.71
2023-03-06T04:11:43.546Z,2.68
2023-03-06T04:14:11.909Z,2.69
2023-03-06T04:34:40.100Z,3.19
2023-03-06T04:37:21.033Z,3.19
2023-03-06T04:39:49.398Z,2.59
2023-03-06T04:42:17.966Z,2.70
2023-03-06T04:44:45.787Z,2.70
2023-03-06T04:47:13.795Z,2.70
2023-03-06T04:49:42.002Z,2.55
2023-03-06T04:52:10.142Z,2.71
2023-03-06T05:12:28.911Z,3.35
2023-03-06T05:14:58.582Z,3.35
2023-03-06T05:17:26.419Z,2.39
2023-03-06T05:19:54.746Z,2.39
2023-03-06T05:22:22.866Z,2.52
2023-03-06T05:24:50.721Z,2.65
2023-03-06T05:27:18.707Z,2.60
2023-03-06T05:29:47.383Z,2.63
2023-03-06T05:47:38.703Z,3.08
2023-03-06T05:50:08.490Z,3.08
2023-03-06T05:52:37.114Z,2.61
2023-03-06T05:55:05.197Z,2.67
2023-03-06T05:57:33.398Z,2.65
2023-03-06T06:00:01.300Z,2.65
2023-03-06T06:02:31.452Z,2.68
2023-03-06T06:05:02.494Z,2.73
2023-03-06T06:07:30.429Z,2.89
2023-03-06T06:09:58.296Z,2.84
2023-03-06T06:12:27.656Z,2.73
2023-03-06T06:47:41.497Z,3.89
2023-03-06T06:50:14.017Z,3.89
2023-03-06T06:52:42.388Z,3.63
2023-03-06T06:55:12.368Z,3.83
2023-03-06T06:57:42.272Z,3.92
2023-03-06T07:00:14.384Z,4.10
2023-03-06T07:02:42.403Z,4.04
2023-03-06T07:05:10.835Z,4.24
2023-03-06T07:07:39.193Z,4.29
2023-03-06T07:10:15.262Z,4.50
2023-03-06T07:12:44.066Z,4.27
2023-03-06T07:15:18.248Z,4.31
2023-03-06T07:17:49.887Z,4.33
2023-03-06T07:20:19.265Z,4.30
2023-03-06T07:22:51.513Z,4.35
2023-03-06T07:25:20.533Z,4.29
2023-03-06T07:27:54.061Z,4.32
2023-03-06T07:32:53.390Z,4.31
2023-03-06T07:38:05.330Z,4.73
2023-03-06T08:16:22.677Z,5.47
2023-03-06T08:18:52.026Z,5.56
2023-03-06T08:21:23.947Z,5.87
2023-03-06T08:23:52.886Z,6.07
2023-03-06T08:26:24.575Z,6.30
2023-03-06T08:28:54.067Z,6.51
2023-03-06T08:31:29.599Z,6.98
2023-03-06T08:34:07.349Z,6.78
2023-03-06T08:36:35.500Z,7.18
2023-03-06T08:39:05.219Z,7.40
2023-03-06T08:41:33.835Z,6.57
2023-03-06T08:44:01.875Z,6.91
2023-03-06T08:46:30.972Z,6.96
2023-03-06T08:48:59.343Z,7.60
2023-03-06T08:51:29.038Z,7.40
2023-03-06T08:53:58.713Z,7.72
2023-03-06T08:56:33.465Z,7.97
2023-03-06T09:24:05.795Z,8.46
2023-03-06T09:26:49.866Z,8.46
2023-03-06T09:29:19.103Z,7.97
2023-03-06T09:31:47.483Z,8.29
2023-03-06T09:34:15.653Z,7.98
2023-03-06T09:36:56.116Z,8.07
2023-03-06T09:39:26.559Z,7.28
2023-03-06T09:41:57.431Z,7.22
2023-03-06T09:44:31.499Z,7.46
2023-03-06T09:47:44.781Z,7.35
2023-03-06T09:50:32.846Z,7.19
2023-03-06T09:53:16.630Z,7.16
2023-03-06T10:01:35.864Z,7.39
2023-03-06T10:13:17.903Z,7.78
2023-03-06T10:15:50.923Z,7.84
2023-03-06T10:18:19.299Z,7.62
2023-03-06T10:21:25.624Z,7.83
2023-03-06T10:23:58.161Z,7.71
2023-03-06T10:26:34.124Z,7.69
2023-03-06T10:29:47.544Z,8.10
2023-03-06T10:32:34.275Z,7.97
2023-03-06T10:35:18.119Z,8.00
2023-03-06T10:37:47.448Z,8.01
2023-03-06T10:40:28.568Z,8.27
2023-03-06T10:43:10.862Z,8.24
2023-03-06T10:45:51.581Z,8.28
2023-03-06T10:48:40.991Z,8.59
2023-03-06T10:54:14.599Z,9.32
2023-03-06T10:56:44.448Z,8.88
2023-03-06T11:28:34.746Z,8.83
2023-03-06T11:31:12.787Z,8.83
2023-03-06T11:34:12.171Z,8.65
2023-03-06T11:37:08.297Z,8.59
2023-03-06T11:39:51.342Z,8.55
2023-03-06T11:42:30.497Z,8.59
2023-03-06T11:45:29.543Z,8.53
2023-03-06T11:48:23.280Z,8.60
2023-03-06T11:53:55.344Z,8.23
2023-03-06T11:56:47.891Z,8.26
2023-03-06T11:59:40.800Z,8.69
2023-03-06T12:05:39.956Z,8.64
2023-03-06T12:17:46.667Z,8.50
2023-03-06T12:20:48.475Z,8.61
2023-03-06T12:23:50.060Z,8.36
2023-03-06T12:26:45.617Z,8.02
2023-03-06T12:29:52.966Z,8.30
2023-03-06T12:32:59.290Z,8.12
2023-03-06T12:36:08.146Z,8.32
2023-03-06T12:39:23.322Z,8.57
2023-03-06T12:42:38.729Z,8.77
2023-03-06T12:45:37.155Z,8.62
2023-03-06T12:48:28.212Z,8.77
2023-03-06T12:50:57.376Z,8.56
2023-03-06T12:53:29.733Z,8.96
2023-03-06T12:59:02.813Z,9.06
2023-03-06T13:18:24.773Z,8.85
2023-03-06T13:20:57.088Z,8.74
2023-03-06T13:23:36.007Z,8.88
2023-03-06T13:26:11.694Z,8.71
2023-03-06T13:28:49.298Z,8.62
2023-03-06T13:31:29.337Z,8.72
2023-03-06T13:34:06.607Z,8.69
2023-03-06T13:36:39.599Z,8.71
2023-03-06T13:39:09.670Z,8.85
2023-03-06T13:41:42.499Z,8.73
2023-03-06T13:44:24.719Z,8.80
2023-03-06T13:47:01.788Z,8.69
2023-03-06T13:49:36.491Z,8.58
2023-03-06T13:52:40.326Z,8.57
2023-03-06T13:55:25.781Z,8.43
2023-03-06T14:04:53.616Z,9.25
2023-03-06T14:07:35.920Z,9.25
2023-03-06T14:10:11.254Z,8.52
2023-03-06T14:12:51.348Z,8.61
2023-03-06T14:15:29.278Z,8.60
2023-03-06T14:18:15.925Z,8.69
2023-03-06T14:20:53.776Z,8.57
2023-03-06T14:23:21.833Z,8.44
2023-03-06T14:25:56.920Z,8.35
2023-03-06T14:28:28.517Z,8.37
2023-03-06T14:30:58.471Z,8.45
2023-03-06T14:36:41.960Z,8.50
2023-03-06T14:39:20.247Z,8.40
2023-03-06T14:44:27.740Z,8.38
2023-03-06T14:46:57.981Z,8.41
2023-03-06T14:49:26.965Z,8.41
2023-03-06T14:52:00.659Z,8.48
2023-03-06T14:54:37.611Z,8.47
2023-03-06T14:57:13.300Z,8.42
2023-03-06T15:00:03.561Z,8.34
2023-03-06T15:02:33.558Z,8.19
2023-03-06T15:08:16.140Z,8.04
2023-03-06T15:10:58.608Z,8.14
2023-03-06T15:29:47.584Z,8.29
2023-03-06T15:32:42.483Z,8.29
2023-03-06T15:35:30.446Z,8.28
2023-03-06T15:37:59.895Z,8.06
2023-03-06T15:40:31.002Z,8.15
2023-03-06T15:42:59.462Z,8.13
2023-03-06T15:45:29.572Z,7.96
2023-03-06T15:47:57.667Z,7.98
2023-03-06T15:50:28.883Z,7.99
2023-03-06T15:55:26.367Z,8.03
2023-03-06T15:58:01.251Z,7.88
2023-03-06T16:15:49.517Z,8.10
2023-03-06T16:18:19.128Z,8.10
2023-03-06T16:20:47.241Z,7.44
2023-03-06T16:23:16.496Z,7.42
2023-03-06T16:25:48.711Z,7.46
2023-03-06T16:28:17.289Z,7.39
2023-03-06T16:30:46.086Z,7.20
2023-03-06T16:33:14.589Z,7.31
2023-03-06T16:35:44.619Z,7.11
2023-03-06T17:03:27.809Z,7.12
2023-03-06T17:05:56.344Z,7.12
2023-03-06T17:08:24.417Z,6.55
2023-03-06T17:10:52.447Z,6.38
2023-03-06T17:13:21.214Z,6.32
2023-03-06T17:15:59.457Z,6.38
2023-03-06T17:18:29.383Z,6.23
2023-03-06T17:20:58.371Z,6.15
2023-03-06T17:23:28.969Z,6.06
2023-03-06T17:49:07.152Z,6.05
2023-03-06T17:51:36.070Z,6.05
2023-03-06T17:54:04.833Z,5.40
2023-03-06T17:56:33.433Z,5.33
2023-03-06T17:59:01.930Z,5.24
2023-03-06T18:01:30.774Z,5.20
2023-03-06T18:03:59.637Z,5.15
2023-03-06T18:06:30.381Z,5.06
2023-03-06T18:08:59.057Z,5.13
2023-03-06T18:31:53.380Z,6.07
2023-03-06T18:34:22.556Z,6.07
2023-03-06T18:36:53.007Z,5.50
2023-03-06T18:39:21.635Z,5.56
2023-03-06T18:41:49.941Z,5.58
2023-03-06T18:44:19.078Z,5.59
2023-03-06T18:46:49.181Z,5.60
2023-03-06T18:49:17.989Z,5.59
2023-03-06T18:51:48.415Z,5.51
2023-03-06T19:16:59.923Z,6.35
2023-03-06T19:19:29.509Z,6.35
2023-03-06T19:21:58.643Z,5.76
2023-03-06T19:24:27.257Z,5.77
2023-03-06T19:26:55.723Z,5.73
2023-03-06T19:29:23.882Z,5.57
2023-03-06T19:31:52.372Z,5.53
2023-03-06T19:34:20.738Z,5.50
2023-03-06T19:36:50.419Z,5.55
2023-03-06T19:57:20.901Z,6.26
2023-03-06T19:59:53.962Z,6.26
2023-03-06T20:02:26.653Z,5.53
2023-03-06T20:04:55.983Z,5.65
2023-03-06T20:07:24.457Z,5.65
2023-03-06T20:09:52.619Z,5.56
2023-03-06T20:12:21.016Z,5.80
2023-03-06T20:35:10.876Z,5.89
2023-03-06T20:37:41.287Z,5.89
2023-03-06T20:40:11.050Z,5.48
2023-03-06T20:42:39.579Z,5.30
2023-03-06T20:45:08.309Z,5.28
2023-03-06T20:47:36.656Z,5.40
2023-03-06T20:50:05.664Z,5.23
2023-03-06T21:13:17.241Z,6.24
2023-03-06T21:15:47.742Z,6.24
2023-03-06T21:18:15.683Z,5.61
2023-03-06T21:20:43.952Z,5.56
2023-03-06T21:23:12.506Z,5.50
2023-03-06T21:25:52.188Z,5.49
2023-03-06T21:49:03.615Z,6.13
2023-03-06T21:51:32.651Z,6.13
2023-03-06T21:54:00.549Z,5.46
2023-03-06T21:56:28.606Z,5.38
2023-03-06T21:58:58.293Z,5.24
2023-03-06T22:01:29.052Z,5.08
2023-03-06T22:03:58.596Z,5.26
2023-03-06T22:26:38.964Z,5.86
2023-03-06T22:29:07.544Z,5.86
2023-03-06T22:31:35.650Z,5.21
2023-03-06T22:34:03.475Z,5.19
2023-03-06T22:36:32.297Z,5.15
2023-03-06T22:39:02.911Z,5.16
2023-03-06T22:41:44.059Z,5.08
2023-03-06T23:04:55.744Z,5.19
2023-03-06T23:07:24.301Z,4.97
2023-03-06T23:10:01.483Z,5.18
2023-03-06T23:12:48.062Z,5.17
2023-03-06T23:15:35.732Z,5.23
2023-03-06T23:18:21.950Z,5.21
2023-03-06T23:44:21.109Z,4.87
2023-03-06T23:46:49.718Z,4.87
2023-03-06T23:49:17.507Z,4.38
2023-03-06T23:51:45.285Z,4.31
2023-03-06T23:54:14.144Z,4.31
2023-03-06T23:56:42.009Z,4.38
2023-03-06T23:59:11.540Z,4.35
